Hermagor, Austria
Current Conditions -  °F | °C
As of 5:20 AM on Friday 28 Nov 2014 (Local Time) from LOWK Reporting Station
Broken Clouds Broken Clouds  
Wind Chill: 39°   Ceiling: 1500
Heat Index: 39°   Visibility: 5mi
Dew Point: 36°   Wind: 1mph
Humidity: 87%   Direction: NA
Pressure: 29.97"   Gusts: NA
Location:  46.62°N, 13.36°E
Report Text: LOWK 280320Z VRB01KT 8000 BKN015 04/02 Q1015 NOSIG
Loading
Personal Weather Stations






























Interactive Weather Map New forecast layout! Learn more

10-Day Weather Forecast

Advertisements
Track Severe Weather on mobile